Latest Weather Observations for Forrest

IDW60801

Issued at 4:03 pm WST Wednesday 10 August 2022 (issued every 10 minutes, with the page automatically refreshed every 10 minutes)

About weather observations | Map of weather stations | Latest weather observations for WA | Other Formats
Station Details ID: 011052 Name: FORREST Lat: -30.85 Lon: 128.11 Height: 159.0 m
Data from the previous 72 hours. | See also: Recent months at Forrest
Date/Time
WST
Temp
°C
App
Temp
°C
Dew
Point
°C
Rel
Hum
%
Delta-T
°C
Wind Press
QNH
hPa
Press
MSL
hPa
Rain since
9am
mm
Dir  Spd
km/h
Gust
km/h
Spd
kts
Gust
kts
10/04:00pm 15.0 5.6 -0.3 35 6.5 W 39 52 21 28 1014.5 1014.5 0.2
10/03:30pm 15.2 5.7 -0.5 34 6.6 W 39 54 21 29 1014.2 1014.1 0.2
10/03:00pm 15.7 5.0 -0.1 34 6.8 W 46 56 25 30 1013.9 1013.8 0.2
10/02:30pm 15.7 6.3 -0.1 34 6.8 W 39 50 21 27 1013.9 1013.8 0.2
10/02:00pm 15.2 6.2 0.2 36 6.4 WNW 37 52 20 28 1013.8 1013.7 0.2
10/01:30pm 15.4 6.4 0.4 36 6.5 W 37 50 20 27 1013.7 1013.6 0.2
10/01:00pm 15.4 6.3 1.9 40 6.0 W 39 50 21 27 1013.9 1013.8 0.0
10/12:30pm 15.1 6.1 2.6 43 5.6 WNW 39 54 21 29 1014.2 1014.1 0.0
10/12:00pm 14.4 5.0 2.6 45 5.3 WNW 41 54 22 29 1014.7 1014.7 0.0
10/11:30am 13.9 5.0 2.8 47 5.0 WNW 39 50 21 27 1015.0 1015.0 0.0
10/11:00am 13.4 4.5 3.2 50 4.6 W 39 52 21 28 1015.2 1015.2 0.0
10/10:30am 13.0 3.7 3.1 51 4.4 W 41 52 22 28 1015.4 1015.4 0.0
10/10:00am 12.4 3.7 3.9 56 3.8 W 39 50 21 27 1015.5 1015.5 0.0
10/09:30am 11.5 2.0 4.0 60 3.4 WNW 43 52 23 28 1015.5 1015.5 0.0
10/09:00am 10.8 2.1 4.3 64 2.9 WNW 39 48 21 26 1015.5 1015.5 1.0
10/08:30am 9.7 1.5 4.5 70 2.3 WNW 37 46 20 25 1015.5 1015.5 1.0
10/08:00am 8.7 1.1 3.9 72 2.1 WNW 33 41 18 22 1015.4 1015.4 1.0
10/07:30am 7.7 1.0 3.4 74 1.8 NW 28 35 15 19 1015.3 1015.3 1.0
10/07:00am 6.8 0.4 3.1 77 1.6 NW 26 33 14 18 1014.9 1014.9 1.0
10/06:30am 6.0 -0.5 2.5 78 1.4 NW 26 33 14 18 1014.5 1014.5 1.0
10/06:00am 5.4 -0.8 2.2 80 1.3 NW 24 30 13 16 1014.1 1014.0 1.0
10/05:30am 5.0 -0.4 2.4 83 1.1 NW 20 26 11 14 1013.6 1013.5 1.0
10/05:00am 5.0 0.2 2.5 84 1.0 NW 17 24 9 13 1013.2 1013.1 1.0
10/04:30am 5.6 0.5 2.8 82 1.2 NW 19 22 10 12 1012.8 1012.7 1.0
10/04:00am 5.9 0.8 3.1 82 1.2 NW 19 22 10 12 1012.5 1012.4 1.0
10/03:30am 6.6 1.0 3.6 81 1.3 NW 22 28 12 15 1012.3 1012.2 1.0
10/03:00am 6.3 1.3 3.8 84 1.1 WNW 19 20 10 11 1012.2 1012.1 1.0
10/02:30am 7.0 2.1 4.1 82 1.3 WNW 19 26 10 14 1012.0 1011.9 1.0
10/02:00am 7.6 2.6 4.6 81 1.3 WNW 20 26 11 14 1011.8 1011.7 1.0
10/01:30am 7.4 3.0 4.9 84 1.1 NW 17 20 9 11 1011.6 1011.5 1.0
10/01:00am 7.8 3.5 5.1 83 1.2 NW 17 20 9 11 1011.5 1011.4 1.0
10/12:30am 8.5 4.2 5.4 81 1.4 WNW 17 20 9 11 1011.2 1011.2 1.0
10/12:00am 9.3 4.5 5.5 77 1.7 W 20 24 11 13 1010.9 1010.9 1.0
 
Date/Time
WST
Temp
°C
App
Temp
°C
Dew
Point
°C
Rel
Hum
%
Delta-T
°C
Wind Press
QNH
hPa
Press
MSL
hPa
Rain since
9am
mm
Dir  Spd
km/h
Gust
km/h
Spd
kts
Gust
kts
09/11:30pm 9.9 5.7 5.9 76 1.9 WNW 17 20 9 11 1011.1 1011.1 1.0
09/11:00pm 10.3 6.7 6.6 78 1.8 WNW 15 17 8 9 1011.1 1011.1 1.0
09/10:30pm 11.5 8.0 7.0 74 2.2 WNW 15 19 8 10 1011.1 1011.1 1.0
09/10:00pm 11.6 8.6 7.5 76 2.0 WNW 13 17 7 9 1010.9 1010.9 1.0
09/09:30pm 12.1 8.4 8.0 76 2.0 WNW 17 24 9 13 1011.2 1011.2 1.0
09/09:00pm 12.7 9.1 9.9 83 1.4 WNW 19 26 10 14 1010.8 1010.8 1.0
09/08:30pm 12.7 8.4 10.6 87 1.1 WSW 24 30 13 16 1009.9 1009.9 1.0
09/08:00pm 13.0 6.8 10.2 83 1.5 W 33 43 18 23 1009.7 1009.7 0.6
09/07:36pm 14.8 6.9 7.8 63 3.5 WSW 39 57 21 31 1008.8 1008.7 0.2
09/07:30pm 14.9 6.2 7.7 62 3.6 WSW 43 57 23 31 1008.7 1008.6 0.2
09/07:01pm 16.8 9.4 4.2 43 6.0 W 32 57 17 31 1008.2 1008.1 0.2
09/07:00pm 16.8 9.6 3.1 40 6.3 W 30 52 16 28 1008.2 1008.1 0.2
09/06:59pm 16.7 9.8 2.7 39 6.4 W 28 44 15 24 1008.2 1008.1 0.2
09/06:30pm 14.5 9.4 0.7 39 5.9 W 17 19 9 10 1007.1 1007.0 0.2
09/06:00pm 15.4 10.2 0.0 35 6.6 W 17 19 9 10 1006.5 1006.4 0.2
09/05:30pm 17.8 12.0 0.0 30 7.8 W 20 24 11 13 1006.1 1006.0 0.2
09/05:00pm 19.4 13.2 -3.5 21 9.5 WNW 20 26 11 14 1006.0 1005.9 0.2
09/04:30pm 21.5 13.6 -4.5 17 10.7 WNW 28 35 15 19 1005.6 1005.5 0.2
09/04:00pm 22.8 14.8 -6.1 14 11.8 WNW 28 35 15 19 1005.3 1005.2 0.2
09/03:30pm 23.6 14.7 -5.4 14 12.0 WNW 33 44 18 24 1005.2 1005.1 0.2
09/03:00pm 24.2 14.6 -4.9 14 12.3 WNW 37 46 20 25 1005.1 1005.0 0.2
09/02:30pm 24.2 14.4 -3.2 16 11.9 NW 39 52 21 28 1004.7 1004.7 0.2
09/02:20pm 24.0 13.6 -1.8 18 11.5 NW 43 61 23 33 1004.9 1004.8 0.2
09/02:00pm 25.0 14.8 1.2 21 11.3 NNW 44 56 24 30 1004.9 1004.8 0.2
09/01:30pm 23.7 15.1 0.1 21 10.9 NNW 35 46 19 25 1005.1 1005.0 0.2
09/01:00pm 22.9 14.2 -0.6 21 10.6 N 35 44 19 24 1005.3 1005.2 0.2
09/12:30pm 21.7 12.6 -0.9 22 10.0 N 37 48 20 26 1005.7 1005.6 0.2
09/12:00pm 21.0 11.5 -0.9 23 9.7 N 39 48 21 26 1006.2 1006.1 0.0
09/11:30am 20.7 11.2 -0.6 24 9.4 NNE 39 54 21 29 1007.0 1006.9 0.0
09/11:00am 19.3 9.8 -0.7 26 8.8 NNE 39 52 21 28 1007.6 1007.5 0.0
09/10:30am 17.9 8.3 1.0 32 7.5 NNE 41 52 22 28 1008.7 1008.6 0.0
09/10:00am 17.2 7.2 0.8 33 7.3 NNE 43 54 23 29 1009.4 1009.4 0.0
09/09:30am 16.6 7.8 1.5 36 6.7 NE 37 48 20 26 1010.1 1010.1 0.0
09/09:00am 14.8 7.7 3.6 47 5.2 NE 30 35 16 19 1010.5 1010.5 0.0
09/08:30am 13.8 6.5 4.7 54 4.2 NE 32 37 17 20 1010.6 1010.6 0.0
09/08:00am 12.6 7.0 5.3 61 3.4 NE 24 28 13 15 1010.9 1010.9 0.0
09/07:30am 11.8 7.2 3.8 58 3.6 NE 17 26 9 14 1011.2 1011.2 0.0
09/07:00am 11.2 4.3 2.8 56 3.7 ENE 28 33 15 18 1010.9 1010.9 0.0
09/06:30am 12.9 5.2 -3.0 33 6.2 ENE 28 33 15 18 1010.9 1010.9 0.0
09/06:00am 12.6 5.3 -3.2 33 6.1 NE 26 32 14 17 1011.4 1011.3 0.0
09/05:30am 12.3 4.2 -3.5 33 6.1 NE 30 39 16 21 1011.1 1011.1 0.0
09/05:00am 12.1 5.8 -3.7 33 6.0 NE 20 35 11 19 1011.2 1011.2 0.0
09/04:30am 11.2 4.1 -4.5 33 5.8 NE 24 28 13 15 1011.0 1011.0 0.0
09/04:00am 10.6 4.4 -4.6 34 5.6 NE 19 24 10 13 1011.2 1011.2 0.0
09/03:30am 9.6 3.4 -5.1 35 5.3 NE 19 22 10 12 1011.5 1011.4 0.0
09/03:00am 8.7 2.8 -5.2 37 4.9 NE 17 19 9 10 1011.6 1011.5 0.0
09/02:30am 8.8 3.3 -5.4 36 5.0 NE 15 19 8 10 1012.2 1012.1 0.0
09/02:00am 9.1 3.2 -5.2 36 5.1 NE 17 19 9 10 1012.6 1012.5 0.0
09/01:30am 9.5 3.6 -5.2 35 5.2 NE 17 20 9 11 1013.3 1013.2 0.0
09/01:00am 9.7 3.4 -5.4 34 5.4 NE 19 22 10 12 1013.6 1013.5 0.0
09/12:30am 7.3 1.4 -6.1 38 4.5 NE 17 19 9 10 1014.0 1013.9 0.0
09/12:00am 7.6 2.0 -6.1 37 4.7 NE 15 17 8 9 1014.2 1014.1 0.0
 
Date/Time
WST
Temp
°C
App
Temp
°C
Dew
Point
°C
Rel
Hum
%
Delta-T
°C
Wind Press
QNH
hPa
Press
MSL
hPa
Rain since
9am
mm
Dir  Spd
km/h
Gust
km/h
Spd
kts
Gust
kts
08/11:30pm 8.9 3.0 -6.1 34 5.2 NE 17 20 9 11 1014.6 1014.6 0.0
08/11:00pm 8.6 3.0 -6.4 34 5.1 NE 15 17 8 9 1014.8 1014.8 0.0
08/10:30pm 7.5 2.6 -6.9 35 4.8 NE 11 13 6 7 1015.2 1015.2 0.0
08/10:00pm 7.9 3.0 -7.0 34 5.0 NE 11 13 6 7 1015.6 1015.6 0.0
08/09:30pm 9.0 3.3 -7.2 31 5.5 NE 15 17 8 9 1015.8 1015.8 0.0
08/09:00pm 8.8 3.9 -7.4 31 5.4 ENE 11 15 6 8 1016.0 1016.0 0.0
08/08:30pm 9.3 4.0 -7.4 30 5.6 ENE 13 15 7 8 1016.2 1016.2 0.0
08/08:00pm 10.2 4.9 -7.5 28 6.0 ENE 13 15 7 8 1016.1 1016.1 0.0
08/07:30pm 11.6 5.2 -7.2 26 6.6 ENE 19 20 10 11 1015.9 1015.9 0.0
08/07:00pm 12.2 6.1 -7.2 25 6.8 ENE 17 19 9 10 1016.0 1016.0 0.0
08/06:30pm 13.4 7.3 -7.9 22 7.5 NE 17 19 9 10 1016.1 1016.1 0.0
08/06:00pm 14.9 8.8 -7.8 20 8.1 ENE 17 19 9 10 1015.8 1015.8 0.0
08/05:30pm 16.9 11.2 -7.5 18 9.0 NE 15 17 8 9 1015.7 1015.7 0.0
08/05:00pm 19.7 13.6 -7.6 15 10.4 NE 17 19 9 10 1015.6 1015.6 0.0
08/04:30pm 22.8 17.9 -7.0 13 11.9 NNE 11 15 6 8 1015.5 1015.5 0.0
08/04:00pm 24.0 18.2 -8.2 11 12.7 N 15 20 8 11 1015.6 1015.6 0.0
08/03:30pm 24.5 18.5 -6.7 12 12.7 N 17 20 9 11 1015.6 1015.6 0.0
08/03:00pm 24.5 18.1 -6.7 12 12.7 N 19 26 10 14 1015.8 1015.8 0.0
08/02:30pm 24.7 18.1 -6.6 12 12.8 N 20 28 11 15 1016.0 1016.0 0.0
08/02:00pm 24.4 18.0 -6.8 12 12.7 N 19 28 10 15 1016.2 1016.2 0.0
08/01:30pm 24.2 18.6 -5.9 13 12.4 N 15 24 8 13 1016.5 1016.5 0.0
08/01:00pm 24.1 18.6 -5.0 14 12.2 N 15 28 8 15 1016.8 1016.8 0.0
08/12:30pm 23.6 18.2 -4.5 15 11.8 NNW 15 26 8 14 1017.2 1017.2 0.0
08/12:00pm 23.4 18.0 -4.7 15 11.7 NNW 15 24 8 13 1017.8 1017.8 0.0
08/11:30am 22.4 17.2 -3.1 18 10.9 NNW 15 20 8 11 1018.6 1018.5 0.0
08/11:00am 20.6 15.0 -2.5 21 9.8 N 17 24 9 13 1019.0 1018.9 0.0
08/10:30am 19.3 14.5 -2.3 23 9.1 NNW 13 19 7 10 1019.4 1019.3 0.0
08/10:00am 17.7 13.0 -2.0 26 8.2 N 13 17 7 9 1019.9 1019.9 0.0
08/09:30am 16.3 11.5 -2.2 28 7.6 N 13 17 7 9 1020.3 1020.3 0.0
08/09:00am 14.6 9.8 -2.3 31 6.8 N 13 19 7 10 1020.5 1020.5 0.0
08/08:30am 12.7 8.6 -2.7 34 6.0 SW 9 11 5 6 1020.4 1020.4 0.0
08/08:00am 11.5 9.0 -1.3 41 5.1 SW 2 7 1 4 1020.4 1020.4 0.0
08/07:30am 9.3 7.0 -2.0 45 4.3 CALM 0 2 0 1 1020.2 1020.2 0.0
08/07:00am 5.9 1.8 -2.7 54 3.1 SW 9 11 5 6 1020.1 1020.1 0.0
08/06:30am 5.0 0.8 -3.5 54 3.0 NW 9 11 5 6 1020.0 1020.0 0.0
08/06:00am 5.7 0.4 -3.6 51 3.3 W 15 15 8 8 1019.9 1019.9 0.0
08/05:30am 5.9 1.1 -2.7 54 3.1 W 13 24 7 13 1019.6 1019.5 0.0
08/05:00am 4.4 -0.1 -3.6 56 2.8 N 11 15 6 8 1019.1 1019.0 0.0
08/04:30am 4.7 0.5 -3.6 55 2.9 N 9 11 5 6 1019.1 1019.0 0.0
08/04:00am 4.5 0.0 -3.5 56 2.8 N 11 13 6 7 1018.9 1018.8 0.0
08/03:30am 4.4 -0.1 -3.6 56 2.8 N 11 13 6 7 1018.9 1018.8 0.0
08/03:00am 4.2 0.0 -3.5 57 2.7 NNE 9 11 5 6 1018.9 1018.8 0.0
08/02:30am 5.4 0.9 -3.1 54 3.0 N 11 13 6 7 1018.8 1018.7 0.0
08/02:00am 5.1 1.0 -3.2 55 2.9 N 9 11 5 6 1018.8 1018.7 0.0
08/01:30am 5.1 0.6 -3.2 55 2.9 N 11 13 6 7 1019.0 1018.9 0.0
08/01:00am 4.0 -0.6 -3.7 57 2.6 NNE 11 13 6 7 1019.2 1019.1 0.0
08/12:30am 4.4 -0.1 -3.6 56 2.8 NNE 11 13 6 7 1019.4 1019.3 0.0
08/12:00am 5.5 1.0 -3.1 54 3.1 NNE 11 11 6 6 1019.7 1019.7 0.0
 
Date/Time
WST
Temp
°C
App
Temp
°C
Dew
Point
°C
Rel
Hum
%
Delta-T
°C
Wind Press
QNH
hPa
Press
MSL
hPa
Rain since
9am
mm
Dir  Spd
km/h
Gust
km/h
Spd
kts
Gust
kts
07/11:30pm 6.5 2.4 -2.9 51 3.4 N 9 11 5 6 1019.8 1019.8 0.0
07/11:00pm 7.2 2.8 -2.8 49 3.7 N 11 13 6 7 1019.9 1019.9 0.0
07/10:30pm 7.6 3.5 -2.7 48 3.8 N 9 13 5 7 1020.0 1020.0 0.0
07/10:00pm 7.5 3.5 -2.5 49 3.7 N 9 11 5 6 1019.9 1019.9 0.0
07/09:30pm 8.5 4.5 -2.1 47 4.0 N 9 11 5 6 1019.7 1019.7 0.0
07/09:00pm 8.2 3.4 -2.4 47 4.0 NNE 13 13 7 7 1019.5 1019.4 0.0
07/08:30pm 8.4 3.6 -2.5 46 4.1 NNE 13 15 7 8 1019.3 1019.2 0.0
07/08:00pm 9.2 4.0 -2.4 44 4.4 NNE 15 15 8 8 1019.3 1019.2 0.0
07/07:30pm 10.1 5.3 -2.5 41 4.8 NNE 13 15 7 8 1019.2 1019.1 0.0
07/07:00pm 10.5 5.7 -2.8 39 5.1 NNE 13 15 7 8 1019.1 1019.0 0.0
07/06:30pm 11.5 6.3 -2.7 37 5.5 NNE 15 17 8 9 1018.9 1018.8 0.0
07/06:00pm 13.0 8.2 -2.5 34 6.1 N 13 15 7 8 1018.7 1018.6 0.0
07/05:30pm 14.3 9.6 -2.1 32 6.6 N 13 15 7 8 1018.5 1018.4 0.0
07/05:00pm 16.8 11.7 -1.8 28 7.7 N 15 17 8 9 1018.2 1018.1 0.0
07/04:30pm 19.1 13.3 -1.4 25 8.8 N 19 26 10 14 1018.2 1018.1 0.0

Other formats

Comma delimited format used in spreadsheet applications
http://www.bom.gov.au/fwo/IDW60801/IDW60801.95646.axf

JavaScript Object Notation format (JSON) in row-major order
http://www.bom.gov.au/fwo/IDW60801/IDW60801.95646.json

Data quality

Most of these data are generated automatically and are frequently updated. Quality checks on data are not normally performed. It is possible for incorrect values to appear. Refer to information at About Latest Weather Observations and please check the disclaimer before using these data.